ILM LONDONIS praegu

Tuul:         230° (SW)

              0.5 m/s

Temperatuur:  3 °C

Õhurõhk:      1035 hPa
EGLL 280120Z AUTO 23001KT 9999 NCD 03/01 Q1035